Guymon, OK

8:37 AM CDT on August 27, 2014 (GMT -0500)
Guymon Municipal | Change Station
CLOSE
Current Station
Airport
Location: Guymon,
Elevation: 3123 ft
Nearby Weather Stations

Elev 3123 ft 36.68 °N, 101.51 °W | Updated 6 minutes ago

Overcast
Overcast
67 °F
Feels Like 67 °F
N
7
Wind Variable Wind from SSE

Today
High -- | Low -- °F
--% Chance of Precip.
Yesterday
High -- | Low -- °F
Precip. -- in
7:13 AM 8:21 PM
Waxing Crescent, 4% visible
Pressure 30.14 in
Visibility 10.0 miles
Clouds Overcast 400 ft
Dew Point 66 °F
Humidity 97%
Rainfall 0.14 in
Snow Depth Not available.
UV 0 out of 12
Pollen 9.20 out of 12
Air Quality Not available.
Flu Activity Not available.
SPECI KGUY 271331Z AUTO 15006KT 10SM OVC004 19/19 A3014 RMK AO2 T01940189

More Conditions Fewer Conditions

Pressure 30.14 in
Visibility 10.0 miles
Clouds Overcast 400 ft
Dew Point 66 °F
Humidity 97%
Rainfall 0.14 in
Snow Depth Not available.
UV 0 out of 12
Pollen 9.20 out of 12
Air Quality Not available.
Flu Activity Not available.
SPECI KGUY 271331Z AUTO 15006KT 10SM OVC004 19/19 A3014 RMK AO2 T01940189

More Conditions Fewer Conditions

Nowcast | as of 7:31 am CDT on August 27, 2014

Scattered showers and a few thunderstorms will continue to move east and northeast across the central and eastern Oklahoma Panhandle and also the northeast and eastern Texas Panhandle through the mid morning hours. These showers and storms will affect locations mainly north and east of a Tyrone to Dumas to Borger to Allison line through 10 am. The strongest storms will be capable of producing wind gusts to around 40 miles an hour and very heavy rain. Rainfall amounts of around one tenth to one quarter of an inch will be possible except near the stronger storms where amounts up to one half to one inch can be expected.

×

10-Day Weather Forecast

Almanac

Astronomy

Aug. 27, 2014 Rise Set
Actual Time 7:13 AM CDT 8:21 PM CDT
Civil Twilight 6:46 AM CDT 8:47 PM CDT
Nautical Twilight 6:14 AM CDT 9:19 PM CDT
Astronomical Twilight 5:41 AM CDT 9:52 PM CDT
Moon 9:06 AM CDT 9:19 PM CDT
Length of Visible Light 14h 01m
Length of Day
13h 08m
Tomorrow will be 2m 12s shorter.
Waxing Crescent, 4% of the Moon is Illuminated
Today
Waxing Crescent
Sep 2
First Quarter
Sep 8
Full
Sep 15
Last Quarter
Sep 24
New

Today's Extremes

State Highs State Lows

Community

WunderPhotos

Upload Photos

1,747,682 photos uploaded!

Nearby

Snow Depth

Station Depth Elevation
No new snow has been reported.

Earthquake Activity

City Distance Mag. Time & Date
No recent earthquake activity has been reported nearby.
Minimum magnitude displayed is 2.5.

Coastal Water Temperatures

Place Temperature
No Stations Reporting

Nearby Weather Stations